Time;durP1;ratioP1;P1;durP2;ratioP2;P2;SDS_P1;SDS_P2;PMS_P1;PMS_P2;Temp;Humidity;BMP_temperature;BMP_pressure;BME280_temperature;BME280_humidity;BME280_pressure;Samples;Min_cycle;Max_cycle;Signal;HPM_P1;HPM_P2
2024/03/31 00:00:03;;;;;;;10.35;3.38;;;;;;;;;;5043096;28;20037;-74
2024/03/31 00:02:39;;;;;;;8.95;2.70;;;;;;;;;;5047540;28;20057;-73
2024/03/31 00:05:08;;;;;;;10.45;2.83;;;;;;;;;;5042148;28;20060;-74
2024/03/31 00:07:37;;;;;;;14.88;3.50;;;;;;;;;;5043125;28;20053;-73
2024/03/31 00:10:06;;;;;;;12.50;3.33;;;;;;;;;;5042276;28;20409;-73
2024/03/31 00:12:35;;;;;;;4.10;3.00;;;;;;;;;;5042745;28;20048;-72
2024/03/31 00:15:04;;;;;;;8.07;2.90;;;;;;;;;;5043353;28;20053;-73
2024/03/31 00:17:32;;;;;;;6.95;2.90;;;;;;;;;;5043534;28;20048;-73
2024/03/31 00:20:01;;;;;;;2.65;2.30;;;;;;;;;;5042738;28;20060;-73
2024/03/31 00:22:29;;;;;;;6.13;2.63;;;;;;;;;;5042519;28;20040;-72
2024/03/31 00:24:58;;;;;;;10.93;2.80;;;;;;;;;;5042745;28;20047;-73
2024/03/31 00:27:27;;;;;;;7.55;2.47;;;;;;;;;;5042428;28;20075;-74
2024/03/31 00:29:56;;;;;;;17.25;3.05;;;;;;;;;;5042075;28;20048;-73
2024/03/31 00:32:24;;;;;;;8.07;3.10;;;;;;;;;;5025173;28;20057;-75
2024/03/31 00:34:53;;;;;;;5.65;3.08;;;;;;;;;;5042127;28;20048;-73
2024/03/31 00:37:21;;;;;;;8.02;3.33;;;;;;;;;;5022153;28;20505;-73
2024/03/31 00:39:50;;;;;;;5.00;3.70;;;;;;;;;;5022556;28;20064;-74
2024/03/31 00:42:20;;;;;;;8.35;3.53;;;;;;;;;;5022455;28;20041;-74
2024/03/31 00:44:49;;;;;;;8.23;3.63;;;;;;;;;;5022420;28;20045;-72
2024/03/31 00:47:17;;;;;;;8.07;3.25;;;;;;;;;;5022430;28;20076;-73
2024/03/31 00:49:45;;;;;;;8.23;2.88;;;;;;;;;;5006110;28;20056;-73
2024/03/31 00:52:13;;;;;;;4.15;2.63;;;;;;;;;;5022947;28;20052;-72
2024/03/31 00:54:45;;;;;;;4.60;2.38;;;;;;;;;;5005246;28;20065;-73
2024/03/31 00:57:14;;;;;;;9.55;3.35;;;;;;;;;;5005547;28;20057;-73
2024/03/31 00:59:42;;;;;;;9.63;3.00;;;;;;;;;;5005467;28;20057;-73
2024/03/31 01:02:11;;;;;;;4.10;2.78;;;;;;;;;;5005385;28;20065;-73
2024/03/31 01:04:39;;;;;;;2.65;2.08;;;;;;;;;;5021491;28;20052;-72
2024/03/31 01:07:09;;;;;;;4.55;3.00;;;;;;;;;;5005717;28;20052;-74
2024/03/31 01:09:38;;;;;;;6.45;3.03;;;;;;;;;;5021678;28;20072;-73
2024/03/31 01:12:07;;;;;;;10.98;3.30;;;;;;;;;;5039707;28;20037;-74
2024/03/31 01:14:37;;;;;;;5.95;3.40;;;;;;;;;;5025096;28;20064;-74
2024/03/31 01:17:06;;;;;;;4.32;2.50;;;;;;;;;;5040928;28;20044;-72
2024/03/31 01:19:34;;;;;;;5.38;3.00;;;;;;;;;;5040648;28;20037;-73
2024/03/31 01:22:04;;;;;;;7.47;2.78;;;;;;;;;;5042097;28;20044;-72
2024/03/31 01:24:32;;;;;;;5.15;2.60;;;;;;;;;;5025024;28;20550;-72
2024/03/31 01:27:01;;;;;;;14.07;3.10;;;;;;;;;;5040426;28;20049;-72
2024/03/31 01:29:29;;;;;;;5.85;2.97;;;;;;;;;;5024869;28;20061;-72
2024/03/31 01:31:58;;;;;;;10.15;2.72;;;;;;;;;;5041738;28;20044;-72
2024/03/31 01:34:28;;;;;;;9.23;2.85;;;;;;;;;;5024680;28;20053;-72
2024/03/31 01:36:56;;;;;;;3.47;2.60;;;;;;;;;;5025341;28;20488;-72
2024/03/31 01:39:24;;;;;;;5.22;2.30;;;;;;;;;;5041625;28;20049;-73
2024/03/31 01:41:53;;;;;;;7.05;2.35;;;;;;;;;;5041122;28;20526;-72
2024/03/31 01:44:21;;;;;;;6.03;2.53;;;;;;;;;;5040834;28;20056;-72
2024/03/31 01:46:49;;;;;;;7.75;2.92;;;;;;;;;;5040975;28;20048;-74
2024/03/31 01:49:18;;;;;;;10.55;2.47;;;;;;;;;;5024473;28;20424;-72
2024/03/31 01:51:48;;;;;;;7.25;2.53;;;;;;;;;;5023674;28;20071;-73
2024/03/31 01:54:16;;;;;;;7.05;2.55;;;;;;;;;;5024050;28;20416;-73
2024/03/31 01:56:45;;;;;;;4.82;2.38;;;;;;;;;;5041153;28;20064;-72
2024/03/31 01:59:13;;;;;;;8.27;2.35;;;;;;;;;;5024417;28;20056;-73
2024/03/31 02:01:44;;;;;;;6.25;2.60;;;;;;;;;;5040683;28;20528;-72
2024/03/31 02:04:12;;;;;;;4.53;2.85;;;;;;;;;;5024495;28;20060;-72
2024/03/31 02:06:42;;;;;;;4.97;2.50;;;;;;;;;;5024333;28;20053;-74
2024/03/31 02:09:10;;;;;;;7.85;2.40;;;;;;;;;;5025032;28;20056;-73
2024/03/31 02:11:39;;;;;;;4.60;2.33;;;;;;;;;;5024943;28;20044;-74
2024/03/31 02:14:10;;;;;;;6.45;2.50;;;;;;;;;;5041272;28;20056;-73
2024/03/31 02:16:38;;;;;;;5.00;2.63;;;;;;;;;;5024957;28;20063;-74
2024/03/31 02:19:08;;;;;;;6.50;2.38;;;;;;;;;;5008102;28;20620;-74
2024/03/31 02:21:36;;;;;;;12.15;2.72;;;;;;;;;;5023688;28;20049;-74
2024/03/31 02:24:05;;;;;;;7.88;2.45;;;;;;;;;;5040560;28;20048;-74
2024/03/31 02:26:35;;;;;;;8.98;2.47;;;;;;;;;;5024432;28;20654;-73
2024/03/31 02:29:05;;;;;;;;;;;;;;;;;;5026923;28;20060;-74
2024/03/31 02:31:34;;;;;;;7.05;2.50;;;;;;;;;;5028020;28;19974;-74
2024/03/31 02:34:04;;;;;;;4.97;2.33;;;;;;;;;;5027722;28;20060;-74
2024/03/31 02:36:33;;;;;;;5.90;2.42;;;;;;;;;;5028742;28;20049;-74
2024/03/31 02:39:01;;;;;;;5.55;2.60;;;;;;;;;;5028070;28;20500;-74
2024/03/31 02:41:30;;;;;;;5.43;2.33;;;;;;;;;;5027837;28;20060;-74
2024/03/31 02:43:58;;;;;;;6.00;2.47;;;;;;;;;;5044589;28;20049;-74
2024/03/31 02:46:27;;;;;;;6.68;2.72;;;;;;;;;;5027899;28;20053;-74
2024/03/31 02:48:58;;;;;;;3.97;1.95;;;;;;;;;;5028561;28;20049;-73
2024/03/31 02:51:27;;;;;;;5.13;2.47;;;;;;;;;;5044321;28;20049;-73
2024/03/31 02:53:55;;;;;;;9.40;3.05;;;;;;;;;;5044053;28;20049;-72
2024/03/31 02:56:23;;;;;;;6.45;2.50;;;;;;;;;;5011509;28;20060;-73
2024/03/31 02:58:52;;;;;;;7.10;2.47;;;;;;;;;;5027238;28;20037;-72
2024/03/31 03:01:22;;;;;;;6.20;2.38;;;;;;;;;;5027856;28;20435;-73
2024/03/31 03:03:50;;;;;;;5.70;2.50;;;;;;;;;;5027836;28;20132;-73
2024/03/31 03:06:19;;;;;;;6.55;2.58;;;;;;;;;;5027260;28;20060;-74
2024/03/31 03:08:47;;;;;;;4.97;2.72;;;;;;;;;;5043686;28;20071;-73
2024/03/31 03:11:18;;;;;;;9.18;2.75;;;;;;;;;;5027443;28;20060;-73
2024/03/31 03:13:46;;;;;;;7.93;2.90;;;;;;;;;;5044021;28;20045;-73
2024/03/31 03:16:18;;;;;;;11.15;3.00;;;;;;;;;;5027679;28;20053;-73
2024/03/31 03:18:46;;;;;;;9.48;3.03;;;;;;;;;;5027571;28;20053;-73
2024/03/31 03:21:14;;;;;;;4.47;2.65;;;;;;;;;;5027355;28;20524;-72
2024/03/31 03:23:43;;;;;;;6.05;2.30;;;;;;;;;;5043067;28;20538;-72
2024/03/31 03:26:11;;;;;;;6.03;2.63;;;;;;;;;;5043363;28;20522;-72
2024/03/31 03:28:41;;;;;;;9.55;2.85;;;;;;;;;;5027486;28;20507;-73
2024/03/31 03:31:09;;;;;;;5.22;2.58;;;;;;;;;;5027811;28;20419;-73
2024/03/31 03:33:38;;;;;;;5.53;3.33;;;;;;;;;;5027480;28;20060;-73
2024/03/31 03:36:08;;;;;;;8.43;3.22;;;;;;;;;;5027712;28;20060;-73
2024/03/31 03:38:36;;;;;;;6.80;3.50;;;;;;;;;;5026717;28;20598;-73
2024/03/31 03:41:05;;;;;;;5.97;2.80;;;;;;;;;;5027289;28;20057;-73
2024/03/31 03:43:33;;;;;;;10.95;3.58;;;;;;;;;;5027866;28;20064;-72
2024/03/31 03:46:06;;;;;;;6.07;2.80;;;;;;;;;;5027819;28;20068;-74
2024/03/31 03:48:38;;;;;;;5.38;3.05;;;;;;;;;;5027600;28;20064;-73
2024/03/31 03:51:06;;;;;;;4.80;2.95;;;;;;;;;;5026661;28;20064;-72
2024/03/31 03:53:34;;;;;;;5.20;3.08;;;;;;;;;;5027116;28;20527;-73
2024/03/31 03:56:03;;;;;;;4.18;2.78;;;;;;;;;;5027125;28;20061;-73
2024/03/31 03:58:31;;;;;;;11.13;3.10;;;;;;;;;;5026584;28;20053;-73
2024/03/31 04:01:00;;;;;;;8.23;2.90;;;;;;;;;;5010690;28;20049;-72
2024/03/31 04:03:28;;;;;;;5.63;3.15;;;;;;;;;;5026593;28;20535;-72
2024/03/31 04:05:58;;;;;;;5.72;2.88;;;;;;;;;;5026896;28;20053;-73
2024/03/31 04:08:26;;;;;;;6.05;2.70;;;;;;;;;;5026852;28;20061;-73
2024/03/31 04:10:55;;;;;;;5.95;2.83;;;;;;;;;;5026288;28;20127;-72
2024/03/31 04:13:24;;;;;;;7.40;3.15;;;;;;;;;;5026663;28;20057;-73
2024/03/31 04:16:00;;;;;;;9.88;3.17;;;;;;;;;;5025824;28;20055;-74
2024/03/31 04:18:34;;;;;;;5.97;2.65;;;;;;;;;;5027617;28;20056;-73
2024/03/31 04:21:06;;;;;;;5.38;2.53;;;;;;;;;;5026671;28;20064;-73
2024/03/31 04:23:39;;;;;;;5.30;2.85;;;;;;;;;;5026697;28;20400;-72
2024/03/31 04:26:08;;;;;;;3.20;2.40;;;;;;;;;;5026253;28;20048;-72
2024/03/31 04:28:36;;;;;;;4.60;2.58;;;;;;;;;;5025765;28;20064;-73
2024/03/31 04:31:06;;;;;;;3.65;2.42;;;;;;;;;;5025936;28;20045;-73
2024/03/31 04:33:34;;;;;;;5.75;2.92;;;;;;;;;;5026207;28;20436;-73
2024/03/31 04:36:03;;;;;;;5.50;2.65;;;;;;;;;;5042149;28;20045;-73
2024/03/31 04:38:35;;;;;;;7.05;2.50;;;;;;;;;;5009688;28;20057;-73
2024/03/31 04:41:05;;;;;;;7.03;2.55;;;;;;;;;;5009838;28;20049;-72
2024/03/31 04:43:34;;;;;;;4.78;2.90;;;;;;;;;;5026140;28;20526;-72
2024/03/31 04:46:04;;;;;;;4.60;2.72;;;;;;;;;;5025811;28;20049;-73
2024/03/31 04:48:40;;;;;;;3.65;2.45;;;;;;;;;;5025698;28;20547;-73
2024/03/31 04:51:09;;;;;;;5.00;2.83;;;;;;;;;;5024598;28;20049;-73
2024/03/31 04:53:37;;;;;;;4.38;2.58;;;;;;;;;;5025906;28;20424;-75
2024/03/31 04:56:08;;;;;;;9.95;2.97;;;;;;;;;;5026166;28;20500;-73
2024/03/31 04:58:36;;;;;;;7.65;3.22;;;;;;;;;;5025745;28;20053;-73
2024/03/31 05:01:05;;;;;;;7.65;3.13;;;;;;;;;;5025496;28;20053;-73
2024/03/31 05:03:35;;;;;;;6.70;2.90;;;;;;;;;;5040913;28;20055;-73
2024/03/31 05:06:04;;;;;;;5.18;2.75;;;;;;;;;;5026134;28;20075;-73
2024/03/31 05:08:33;;;;;;;5.40;2.75;;;;;;;;;;5025932;28;20056;-72
2024/03/31 05:11:03;;;;;;;3.83;3.08;;;;;;;;;;5026122;28;20136;-72
2024/03/31 05:13:32;;;;;;;6.00;3.03;;;;;;;;;;5025419;28;20056;-73
2024/03/31 05:16:10;;;;;;;6.35;3.17;;;;;;;;;;5026095;28;20053;-73
2024/03/31 05:18:39;;;;;;;8.00;3.00;;;;;;;;;;5024980;28;20057;-73
2024/03/31 05:21:13;;;;;;;10.02;3.00;;;;;;;;;;5025432;28;20065;-73
2024/03/31 05:23:45;;;;;;;5.53;2.65;;;;;;;;;;5025121;28;20045;-73
2024/03/31 05:26:31;;;;;;;5.68;3.00;;;;;;;;;;5027017;28;20053;-73
2024/03/31 05:29:00;;;;;;;3.90;2.40;;;;;;;;;;5024769;28;20052;-73
2024/03/31 05:31:29;;;;;;;5.65;2.55;;;;;;;;;;5025167;28;20519;-73
2024/03/31 05:34:11;;;;;;;9.10;2.78;;;;;;;;;;5027482;28;20515;-73
2024/03/31 05:36:43;;;;;;;4.40;2.60;;;;;;;;;;5025608;28;20056;-72
2024/03/31 05:39:13;;;;;;;3.78;2.28;;;;;;;;;;5041037;28;20041;-73
2024/03/31 05:41:41;;;;;;;5.38;2.58;;;;;;;;;;5025767;28;20071;-73
2024/03/31 05:44:10;;;;;;;6.15;2.70;;;;;;;;;;5025222;28;20049;-73
2024/03/31 05:46:38;;;;;;;7.13;2.83;;;;;;;;;;5025415;28;20059;-73
2024/03/31 05:49:07;;;;;;;6.65;3.03;;;;;;;;;;5024409;28;20519;-73
2024/03/31 05:51:36;;;;;;;3.83;2.55;;;;;;;;;;5024691;28;20064;-74
2024/03/31 05:54:04;;;;;;;5.85;2.83;;;;;;;;;;5008177;28;20068;-73
2024/03/31 05:56:33;;;;;;;4.85;2.53;;;;;;;;;;5024249;28;20056;-73
2024/03/31 05:59:03;;;;;;;6.50;2.83;;;;;;;;;;5024985;28;20127;-73
2024/03/31 06:01:33;;;;;;;8.65;3.03;;;;;;;;;;5025071;28;20068;-73
2024/03/31 06:04:02;;;;;;;5.57;3.17;;;;;;;;;;5024162;28;20441;-73
2024/03/31 06:06:31;;;;;;;7.00;3.28;;;;;;;;;;5024416;28;20542;-73
2024/03/31 06:08:59;;;;;;;4.95;3.22;;;;;;;;;;5025026;28;20053;-73
2024/03/31 06:11:28;;;;;;;4.97;2.72;;;;;;;;;;5024630;28;20064;-73
2024/03/31 06:13:58;;;;;;;3.92;2.70;;;;;;;;;;5024480;28;20044;-73
2024/03/31 06:16:28;;;;;;;5.20;1.98;;;;;;;;;;5040024;28;20057;-73
2024/03/31 06:18:56;;;;;;;3.92;2.28;;;;;;;;;;5024128;28;20072;-73
2024/03/31 06:21:25;;;;;;;5.75;2.60;;;;;;;;;;5008230;28;20119;-73
2024/03/31 06:23:53;;;;;;;7.93;2.85;;;;;;;;;;5024514;28;20064;-73
2024/03/31 06:26:22;;;;;;;5.82;2.90;;;;;;;;;;5024625;28;20504;-73
2024/03/31 06:28:50;;;;;;;7.45;3.05;;;;;;;;;;5024271;28;20040;-73
2024/03/31 06:31:19;;;;;;;3.92;2.83;;;;;;;;;;5024124;28;20053;-73
2024/03/31 06:33:55;;;;;;;9.55;2.95;;;;;;;;;;5025299;28;20412;-72
2024/03/31 06:36:23;;;;;;;4.95;2.70;;;;;;;;;;5025204;28;20546;-72
2024/03/31 06:38:52;;;;;;;5.75;2.58;;;;;;;;;;5023863;28;20060;-74
2024/03/31 06:41:21;;;;;;;5.25;3.10;;;;;;;;;;5023620;28;20762;-73
2024/03/31 06:43:49;;;;;;;5.55;3.15;;;;;;;;;;5040132;28;20045;-72
2024/03/31 06:46:18;;;;;;;5.22;2.88;;;;;;;;;;5040002;28;20508;-72
2024/03/31 06:48:47;;;;;;;5.38;2.72;;;;;;;;;;5024109;28;20431;-74
2024/03/31 06:51:15;;;;;;;4.43;2.90;;;;;;;;;;5023961;28;20053;-73
2024/03/31 06:53:47;;;;;;;4.75;2.58;;;;;;;;;;5024271;28;20419;-73
2024/03/31 06:56:15;;;;;;;5.88;2.85;;;;;;;;;;5023967;28;20513;-72
2024/03/31 06:58:43;;;;;;;3.97;2.60;;;;;;;;;;5023904;28;20351;-73
2024/03/31 07:01:12;;;;;;;4.63;2.47;;;;;;;;;;5023499;28;20057;-73
2024/03/31 07:03:41;;;;;;;3.22;2.22;;;;;;;;;;5008207;28;20057;-73
2024/03/31 07:06:10;;;;;;;4.13;2.78;;;;;;;;;;5024199;28;20534;-73
2024/03/31 07:08:41;;;;;;;7.88;3.10;;;;;;;;;;5024660;28;20057;-74
2024/03/31 07:11:10;;;;;;;6.38;2.83;;;;;;;;;;5023582;28;20512;-73
2024/03/31 07:13:39;;;;;;;5.00;2.75;;;;;;;;;;5024379;28;20060;-73
2024/03/31 07:16:08;;;;;;;6.88;3.20;;;;;;;;;;5026844;28;20056;-73
2024/03/31 07:18:36;;;;;;;4.03;3.05;;;;;;;;;;5044259;28;20041;-72
2024/03/31 07:21:04;;;;;;;8.00;3.20;;;;;;;;;;5027739;28;20045;-73
2024/03/31 07:23:33;;;;;;;5.85;3.00;;;;;;;;;;5043466;28;20526;-73
2024/03/31 07:26:02;;;;;;;7.22;3.22;;;;;;;;;;5028066;28;20056;-73
2024/03/31 07:28:30;;;;;;;5.25;2.97;;;;;;;;;;5027562;28;20045;-72
2024/03/31 07:30:59;;;;;;;4.78;2.58;;;;;;;;;;5043621;28;20045;-73
2024/03/31 07:33:27;;;;;;;6.85;3.10;;;;;;;;;;5027269;28;20065;-73
2024/03/31 07:36:00;;;;;;;5.95;2.97;;;;;;;;;;5027137;28;20436;-73
2024/03/31 07:38:29;;;;;;;4.70;2.72;;;;;;;;;;5043730;28;20045;-73
2024/03/31 07:40:58;;;;;;;7.18;2.40;;;;;;;;;;5043271;28;20052;-72
2024/03/31 07:43:29;;;;;;;9.35;3.30;;;;;;;;;;5043362;28;20052;-74
2024/03/31 07:45:59;;;;;;;3.65;2.75;;;;;;;;;;5043438;28;20041;-73
2024/03/31 07:48:27;;;;;;;6.07;2.60;;;;;;;;;;5042999;28;20053;-74
2024/03/31 07:50:56;;;;;;;5.88;2.70;;;;;;;;;;5043011;28;20045;-73
2024/03/31 07:53:24;;;;;;;4.07;2.22;;;;;;;;;;5043343;28;20067;-73
2024/03/31 07:55:57;;;;;;;4.25;2.63;;;;;;;;;;5043533;28;20072;-73
2024/03/31 07:58:26;;;;;;;3.88;2.60;;;;;;;;;;5027205;28;20060;-73
2024/03/31 08:00:56;;;;;;;3.05;2.65;;;;;;;;;;5043525;28;20060;-73
2024/03/31 08:03:24;;;;;;;5.35;2.53;;;;;;;;;;5042539;28;20048;-72
2024/03/31 08:05:53;;;;;;;2.58;2.05;;;;;;;;;;5043527;28;20052;-73
2024/03/31 08:08:21;;;;;;;2.55;1.67;;;;;;;;;;5042771;28;20504;-72
2024/03/31 08:10:49;;;;;;;2.90;2.20;;;;;;;;;;5042888;28;20048;-73
2024/03/31 08:13:21;;;;;;;5.40;2.35;;;;;;;;;;5042571;28;20049;-73
2024/03/31 08:15:49;;;;;;;4.95;2.35;;;;;;;;;;5042904;28;20041;-73
2024/03/31 08:18:17;;;;;;;3.03;1.90;;;;;;;;;;5042398;28;20052;-72
2024/03/31 08:20:48;;;;;;;4.15;2.60;;;;;;;;;;5042444;28;20044;-73
2024/03/31 08:23:17;;;;;;;7.47;3.13;;;;;;;;;;5043216;28;20423;-73
2024/03/31 08:25:54;;;;;;;4.35;2.95;;;;;;;;;;5041886;28;20397;-73
2024/03/31 08:28:24;;;;;;;4.50;2.97;;;;;;;;;;5042539;28;20056;-72
2024/03/31 08:30:52;;;;;;;7.97;2.97;;;;;;;;;;5042492;28;21095;-73
2024/03/31 08:33:20;;;;;;;4.30;2.22;;;;;;;;;;5042939;28;20059;-73
2024/03/31 08:35:52;;;;;;;4.85;2.75;;;;;;;;;;5042563;28;20041;-73
2024/03/31 08:38:20;;;;;;;4.75;3.08;;;;;;;;;;5042663;28;20393;-73
2024/03/31 08:40:56;;;;;;;5.47;2.95;;;;;;;;;;5042094;28;20036;-73
2024/03/31 08:43:28;;;;;;;5.78;2.88;;;;;;;;;;5042771;28;20051;-73
2024/03/31 08:45:58;;;;;;;7.55;3.17;;;;;;;;;;5025611;28;20539;-73
2024/03/31 08:48:35;;;;;;;7.18;2.80;;;;;;;;;;5042721;28;20051;-73
2024/03/31 08:51:05;;;;;;;6.72;3.38;;;;;;;;;;5041882;28;20064;-73
2024/03/31 08:53:36;;;;;;;8.52;3.60;;;;;;;;;;5042385;28;20044;-74
2024/03/31 08:56:05;;;;;;;4.25;3.42;;;;;;;;;;5042427;28;20052;-72
2024/03/31 08:58:35;;;;;;;6.75;3.30;;;;;;;;;;5041938;28;20503;-73
2024/03/31 09:01:07;;;;;;;6.40;3.35;;;;;;;;;;5041627;28;20057;-73
2024/03/31 09:03:36;;;;;;;4.85;2.97;;;;;;;;;;5041793;28;20531;-73
2024/03/31 09:06:04;;;;;;;7.45;2.95;;;;;;;;;;5042579;28;20041;-73
2024/03/31 09:08:33;;;;;;;7.88;3.38;;;;;;;;;;5025746;28;20060;-74
2024/03/31 09:11:03;;;;;;;8.93;3.10;;;;;;;;;;5041329;28;20393;-73
2024/03/31 09:13:32;;;;;;;10.55;3.03;;;;;;;;;;5041755;28;20048;-73
2024/03/31 09:16:01;;;;;;;6.82;3.20;;;;;;;;;;5041740;28;20048;-73
2024/03/31 09:18:30;;;;;;;5.78;3.47;;;;;;;;;;5041928;28;20056;-73
2024/03/31 09:20:58;;;;;;;4.45;2.83;;;;;;;;;;5025476;28;20048;-73
2024/03/31 09:23:26;;;;;;;4.53;2.72;;;;;;;;;;5041888;28;20504;-73
2024/03/31 09:25:55;;;;;;;6.35;2.65;;;;;;;;;;5041860;28;20040;-73
2024/03/31 09:28:24;;;;;;;3.50;2.38;;;;;;;;;;5041238;28;20043;-73
2024/03/31 09:30:52;;;;;;;6.28;2.70;;;;;;;;;;5024756;28;20060;-73
2024/03/31 09:33:21;;;;;;;3.08;2.15;;;;;;;;;;5041434;28;20045;-73
2024/03/31 09:35:52;;;;;;;6.57;2.75;;;;;;;;;;5041577;28;20049;-73
2024/03/31 09:38:21;;;;;;;3.95;2.80;;;;;;;;;;5024586;28;20037;-73
2024/03/31 09:40:50;;;;;;;7.25;2.92;;;;;;;;;;5041322;28;20080;-74
2024/03/31 09:43:19;;;;;;;4.95;2.55;;;;;;;;;;5041254;28;20052;-73
2024/03/31 09:45:48;;;;;;;4.18;2.65;;;;;;;;;;5040934;28;20511;-73
2024/03/31 09:48:25;;;;;;;4.47;2.83;;;;;;;;;;5040864;28;20056;-73
2024/03/31 09:51:24;;;;;;;7.70;2.80;;;;;;;;;;5024288;28;20071;-73
2024/03/31 09:54:13;;;;;;;7.38;2.72;;;;;;;;;;5041296;28;20373;-73
2024/03/31 09:56:46;;;;;;;5.13;2.75;;;;;;;;;;5040861;28;20041;-73
2024/03/31 09:59:18;;;;;;;3.58;2.30;;;;;;;;;;5041125;28;20048;-74
2024/03/31 10:01:48;;;;;;;5.88;2.33;;;;;;;;;;5040647;28;21146;-73
2024/03/31 10:04:32;;;;;;;3.35;2.63;;;;;;;;;;5024610;28;20046;-73
2024/03/31 10:07:00;;;;;;;3.53;2.28;;;;;;;;;;5024781;28;20404;-73
2024/03/31 10:09:30;;;;;;;6.88;2.90;;;;;;;;;;5040757;28;20403;-73
2024/03/31 10:12:01;;;;;;;3.55;2.58;;;;;;;;;;5025198;28;20075;-73
2024/03/31 10:14:31;;;;;;;4.90;2.85;;;;;;;;;;5040502;28;20049;-73
2024/03/31 10:17:00;;;;;;;8.68;2.67;;;;;;;;;;5040424;28;20504;-74
2024/03/31 10:19:30;;;;;;;5.72;3.30;;;;;;;;;;5040418;28;20044;-73
2024/03/31 10:22:00;;;;;;;3.88;3.03;;;;;;;;;;5040721;28;20048;-73
2024/03/31 10:24:31;;;;;;;6.40;2.90;;;;;;;;;;5040380;28;20045;-73
2024/03/31 10:27:00;;;;;;;4.70;3.00;;;;;;;;;;5040692;28;20055;-73
2024/03/31 10:29:30;;;;;;;7.18;3.15;;;;;;;;;;5040236;28;20056;-73
2024/03/31 10:31:59;;;;;;;8.70;3.58;;;;;;;;;;5040252;28;20542;-73
2024/03/31 10:34:27;;;;;;;3.65;2.95;;;;;;;;;;5041075;28;20052;-72
2024/03/31 10:36:57;;;;;;;8.32;3.47;;;;;;;;;;5040372;28;20059;-73
2024/03/31 10:39:25;;;;;;;5.05;3.42;;;;;;;;;;5023956;28;20048;-73
2024/03/31 10:41:54;;;;;;;6.38;3.30;;;;;;;;;;5040940;28;20049;-73
2024/03/31 10:44:25;;;;;;;4.60;3.05;;;;;;;;;;5040406;28;20044;-73
2024/03/31 10:46:55;;;;;;;3.80;2.95;;;;;;;;;;5040591;28;20049;-73
2024/03/31 10:49:58;;;;;;;7.00;3.30;;;;;;;;;;5040791;28;20052;-73
2024/03/31 10:52:31;;;;;;;9.07;3.47;;;;;;;;;;5028925;28;20101;-73
2024/03/31 10:55:00;;;;;;;8.40;3.55;;;;;;;;;;5044837;28;20053;-73
2024/03/31 10:57:41;;;;;;;7.97;2.88;;;;;;;;;;5044561;28;20049;-73
2024/03/31 11:00:16;;;;;;;5.05;3.95;;;;;;;;;;5044513;28;20056;-73
2024/03/31 11:02:49;;;;;;;6.63;4.13;;;;;;;;;;5044184;28;20049;-73
2024/03/31 11:05:22;;;;;;;7.95;3.67;;;;;;;;;;5043915;28;20142;-76
2024/03/31 11:07:57;;;;;;;5.97;3.67;;;;;;;;;;5043784;28;20037;-73
2024/03/31 11:10:26;;;;;;;5.38;3.55;;;;;;;;;;5043754;28;20052;-73
2024/03/31 11:12:55;;;;;;;6.35;3.60;;;;;;;;;;5043777;28;20063;-73
2024/03/31 11:15:24;;;;;;;6.22;3.55;;;;;;;;;;5044103;28;20041;-76
2024/03/31 11:17:54;;;;;;;8.20;3.13;;;;;;;;;;5044162;28;20045;-75
2024/03/31 11:20:24;;;;;;;7.22;5.03;;;;;;;;;;5043712;28;20052;-74
2024/03/31 11:22:54;;;;;;;4.85;2.45;;;;;;;;;;5027264;28;20451;-74
2024/03/31 11:25:23;;;;;;;6.00;2.85;;;;;;;;;;5044417;28;20056;-74
2024/03/31 11:27:52;;;;;;;4.30;2.25;;;;;;;;;;5044099;28;20060;-74
2024/03/31 11:30:21;;;;;;;6.22;2.17;;;;;;;;;;5044048;28;20057;-74
2024/03/31 11:32:49;;;;;;;;;;;;;;;;;;5027505;28;20059;-75
2024/03/31 11:35:18;;;;;;;7.72;2.25;;;;;;;;;;5043475;28;19931;-74
2024/03/31 11:37:46;;;;;;;;;;;;;;;;;;5044508;28;20525;-75
2024/03/31 11:40:14;;;;;;;4.75;2.83;;;;;;;;;;5043288;28;19928;-74
2024/03/31 11:42:43;;;;;;;5.72;2.42;;;;;;;;;;5043436;28;20435;-83
2024/03/31 11:45:12;;;;;;;15.80;2.88;;;;;;;;;;5044254;28;20045;-74
2024/03/31 11:47:41;;;;;;;6.00;2.35;;;;;;;;;;5044639;28;20041;-74
2024/03/31 11:50:09;;;;;;;;;;;;;;;;;;5045925;28;20053;-75
2024/03/31 11:52:37;;;;;;;3.53;2.05;;;;;;;;;;5044933;28;19925;-74
2024/03/31 11:55:07;;;;;;;5.95;2.13;;;;;;;;;;5043361;28;20053;-74
2024/03/31 11:57:36;;;;;;;5.20;1.92;;;;;;;;;;5042524;28;20534;-75
2024/03/31 12:00:05;;;;;;;5.60;1.92;;;;;;;;;;5042707;28;20056;-76
2024/03/31 12:02:39;;;;;;;4.13;1.67;;;;;;;;;;5044706;28;20056;-74
2024/03/31 12:05:19;;;;;;;6.00;1.77;;;;;;;;;;5043111;28;20431;-74
2024/03/31 12:07:48;;;;;;;6.05;2.03;;;;;;;;;;5042885;28;20076;-75
2024/03/31 12:10:19;;;;;;;2.45;1.70;;;;;;;;;;5026581;28;20059;-77
2024/03/31 12:12:47;;;;;;;7.20;1.90;;;;;;;;;;5043064;28;20053;-75
2024/03/31 12:15:19;;;;;;;4.90;2.70;;;;;;;;;;5043060;28;20045;-74
2024/03/31 12:18:00;;;;;;;4.97;1.98;;;;;;;;;;5043266;28;20048;-74
2024/03/31 12:20:29;;;;;;;6.07;2.00;;;;;;;;;;5023815;28;20071;-72
2024/03/31 12:22:59;;;;;;;5.63;2.03;;;;;;;;;;5022923;28;20041;-75
2024/03/31 12:25:27;;;;;;;3.83;2.40;;;;;;;;;;5022900;28;20041;-74
2024/03/31 12:27:57;;;;;;;6.20;2.63;;;;;;;;;;5022567;28;20875;-74
2024/03/31 12:30:27;;;;;;;5.25;2.80;;;;;;;;;;5024250;28;20041;-73
2024/03/31 12:32:55;;;;;;;5.60;3.30;;;;;;;;;;5023029;28;20057;-77
2024/03/31 12:35:24;;;;;;;8.00;3.35;;;;;;;;;;5023101;28;20045;-74
2024/03/31 12:37:52;;;;;;;12.88;3.45;;;;;;;;;;5022463;28;20420;-74
2024/03/31 12:40:22;;;;;;;9.95;3.42;;;;;;;;;;5021602;28;20056;-74
2024/03/31 12:42:53;;;;;;;8.52;3.67;;;;;;;;;;5022782;28;20527;-75
2024/03/31 12:45:24;;;;;;;6.40;3.33;;;;;;;;;;5023032;28;20404;-75
2024/03/31 12:47:55;;;;;;;9.98;3.00;;;;;;;;;;5021990;28;20050;-74
2024/03/31 12:50:24;;;;;;;6.82;3.10;;;;;;;;;;5022246;28;20112;-74
2024/03/31 12:52:52;;;;;;;4.88;3.30;;;;;;;;;;5021901;28;20045;-74
2024/03/31 12:55:21;;;;;;;6.45;2.83;;;;;;;;;;5022111;28;20068;-75
2024/03/31 12:57:49;;;;;;;6.15;2.40;;;;;;;;;;5022306;28;20045;-74
2024/03/31 13:00:18;;;;;;;6.57;2.97;;;;;;;;;;5022447;28;20108;-75
2024/03/31 13:02:47;;;;;;;3.78;2.63;;;;;;;;;;5022068;28;20041;-75
2024/03/31 13:05:15;;;;;;;8.88;2.78;;;;;;;;;;5005419;28;20041;-75
2024/03/31 13:07:44;;;;;;;6.40;2.50;;;;;;;;;;5022713;28;20347;-75
2024/03/31 13:10:13;;;;;;;3.85;2.25;;;;;;;;;;5007243;28;20436;-75
2024/03/31 13:12:41;;;;;;;6.25;2.80;;;;;;;;;;5024238;28;20633;-76
2024/03/31 13:15:10;;;;;;;17.55;3.00;;;;;;;;;;5041556;28;20431;-77
2024/03/31 13:17:38;;;;;;;2.63;1.90;;;;;;;;;;5042082;28;20722;-76
2024/03/31 13:20:08;;;;;;;3.22;1.90;;;;;;;;;;5041329;28;20037;-79
2024/03/31 13:22:36;;;;;;;6.63;2.25;;;;;;;;;;5041899;28;20091;-75
2024/03/31 13:25:06;;;;;;;3.63;2.10;;;;;;;;;;5040229;28;20041;-76
2024/03/31 13:27:34;;;;;;;3.88;1.67;;;;;;;;;;5021615;28;20049;-74
2024/03/31 13:30:03;;;;;;;2.58;1.85;;;;;;;;;;5021772;28;20041;-75
2024/03/31 13:32:32;;;;;;;5.10;1.80;;;;;;;;;;5021208;28;20049;-75
2024/03/31 13:35:00;;;;;;;7.43;2.08;;;;;;;;;;5021502;28;20527;-75
2024/03/31 13:37:29;;;;;;;3.97;2.30;;;;;;;;;;5005860;28;20552;-75
2024/03/31 13:39:59;;;;;;;6.38;2.08;;;;;;;;;;5022297;28;20046;-75
2024/03/31 13:42:28;;;;;;;3.17;1.90;;;;;;;;;;5029835;28;20519;-74
2024/03/31 13:44:57;;;;;;;3.25;2.05;;;;;;;;;;5021140;28;20523;-74
2024/03/31 13:47:25;;;;;;;5.57;2.20;;;;;;;;;;5021029;28;20549;-75
2024/03/31 13:49:54;;;;;;;4.90;2.28;;;;;;;;;;5021408;28;20053;-75
2024/03/31 13:52:22;;;;;;;3.22;1.98;;;;;;;;;;5020909;28;20049;-75
2024/03/31 13:54:52;;;;;;;8.20;2.42;;;;;;;;;;5020882;28;20393;-75
2024/03/31 13:57:22;;;;;;;5.65;2.28;;;;;;;;;;5020970;28;20042;-76
2024/03/31 13:59:50;;;;;;;7.57;2.78;;;;;;;;;;5020574;28;20052;-75
2024/03/31 14:02:19;;;;;;;3.50;2.50;;;;;;;;;;5021218;28;20386;-77
2024/03/31 14:04:47;;;;;;;3.13;2.00;;;;;;;;;;5020630;28;20050;-75
2024/03/31 14:07:16;;;;;;;;;;;;;;;;;;5005372;28;20045;-75
2024/03/31 14:09:44;;;;;;;5.47;2.00;;;;;;;;;;5021132;28;19925;-75
2024/03/31 14:12:13;;;;;;;4.95;2.22;;;;;;;;;;5020908;28;20048;-75
2024/03/31 14:14:41;;;;;;;2.97;2.00;;;;;;;;;;5020399;28;20412;-75
2024/03/31 14:17:10;;;;;;;3.63;2.22;;;;;;;;;;5020668;28;20050;-75
2024/03/31 14:19:39;;;;;;;4.40;2.20;;;;;;;;;;5020491;28;20042;-74
2024/03/31 14:22:08;;;;;;;4.15;2.47;;;;;;;;;;5020491;28;20436;-76
2024/03/31 14:24:36;;;;;;;;;;;;;;;;;;5020507;28;20042;-74
2024/03/31 14:27:04;;;;;;;3.67;1.77;;;;;;;;;;5021524;28;19932;-75
2024/03/31 14:29:33;;;;;;;6.45;2.40;;;;;;;;;;5024128;28;20493;-74
2024/03/31 14:32:01;;;;;;;3.35;2.13;;;;;;;;;;5038872;28;20041;-77
2024/03/31 14:34:31;;;;;;;7.35;2.30;;;;;;;;;;5040031;28;20041;-80
2024/03/31 14:37:01;;;;;;;6.07;2.22;;;;;;;;;;5023381;28;20717;-75
2024/03/31 14:39:29;;;;;;;3.38;2.35;;;;;;;;;;5040389;28;20508;-74
2024/03/31 14:41:57;;;;;;;;;;;;;;;;;;5024446;28;20055;-74
2024/03/31 14:44:25;;;;;;;2.75;2.00;;;;;;;;;;5040173;28;19924;-75
2024/03/31 14:46:54;;;;;;;2.33;1.73;;;;;;;;;;5040407;28;20041;-75
2024/03/31 14:49:23;;;;;;;4.07;2.17;;;;;;;;;;5039718;28;20064;-77
2024/03/31 14:51:52;;;;;;;4.45;1.88;;;;;;;;;;5039936;28;20051;-76
2024/03/31 14:54:20;;;;;;;5.70;2.17;;;;;;;;;;5039805;28;20045;-75
2024/03/31 14:56:49;;;;;;;2.13;1.52;;;;;;;;;;5040629;28;20060;-74
2024/03/31 14:59:17;;;;;;;1.95;1.23;;;;;;;;;;5041009;28;20424;-75